Aviation Digital Data Service (ADDS)

Output produced by METARs form (1053 UTC 22 April 2018)
found at http://aviationweather.gov/adds/metars/
 
METAR text: KVCB 220953Z AUTO 00000KT 10SM CLR 11/09 A2998 RMK AO2 SLP151 T01060094
Conditions at: KVCB (VACAVILLE , CA, US) observed 0953 UTC 22 April 2018
Temperature: 10.6°C (51°F)
Dewpoint: 9.4°C (49°F) [RH = 92%]
Pressure (altimeter): 29.98 inches Hg (1015.3 mb)
[Sea-level pressure: 1015.1 mb]
Winds: calm
Visibility: 10 or more miles (16+ km)
Ceiling: at least 12,000 feet AGL
Clouds: sky clear below 12,000 feet AGL
Weather: automated observation with no human augmentation;
there may or may not be significant weather present at this time